Time,TemperatureF,DewpointF,PressureIn,WindDirection,WindDirectionDegrees,WindSpeedMPH,WindSpeedGustMPH,Humidity,HourlyPrecipIn,Conditions,Clouds,dailyrainin,SoftwareType,DateUTC
2013-02-04 00:01:00,36.0,25.0,29.89,North,11,1.0,5.0,64,0.00,,,-99.99,,2013-02-04 07:01:00,
2013-02-04 00:11:00,36.0,25.0,29.89,North,11,1.0,6.0,64,0.00,,,-99.99,,2013-02-04 07:11:00,
2013-02-04 00:21:00,36.0,25.0,29.89,North,11,1.0,6.0,64,0.00,,,-99.99,,2013-02-04 07:21:00,
2013-02-04 00:31:00,36.0,25.0,29.89,North,11,1.0,6.0,64,0.00,,,-99.99,,2013-02-04 07:31:00,
2013-02-04 00:42:00,36.0,25.0,29.89,North,11,1.0,6.0,64,0.00,,,-99.99,,2013-02-04 07:42:00,
2013-02-04 00:52:00,36.0,25.0,29.88,NE,56,1.0,4.0,65,0.00,,,-99.99,,2013-02-04 07:52:00,
2013-02-04 01:01:00,36.0,25.0,29.88,NE,56,1.0,4.0,65,0.00,,,-99.99,,2013-02-04 08:01:00,
2013-02-04 01:11:00,36.0,25.0,29.88,NE,56,1.0,4.0,65,0.00,,,-99.99,,2013-02-04 08:11:00,
2013-02-04 01:21:00,36.0,25.0,29.86,NE,49,2.0,6.0,64,0.00,,,-99.99,,2013-02-04 08:21:00,
2013-02-04 01:31:00,36.0,25.0,29.86,NE,49,2.0,6.0,64,0.00,,,-99.99,,2013-02-04 08:31:00,
2013-02-04 01:42:00,36.0,25.0,29.86,NE,49,2.0,6.0,64,0.00,,,-99.99,,2013-02-04 08:42:00,
2013-02-04 01:52:00,36.0,24.0,29.86,NNE,28,1.0,5.0,62,0.00,,,-99.99,,2013-02-04 08:52:00,
2013-02-04 02:01:00,36.0,24.0,29.86,NNE,28,1.0,5.0,62,0.00,,,-99.99,,2013-02-04 09:01:00,
2013-02-04 02:11:00,36.0,25.0,29.86,North,355,0.0,3.0,63,0.00,,,-99.99,,2013-02-04 09:11:00,
2013-02-04 02:21:00,36.0,25.0,29.86,North,355,0.0,3.0,63,0.00,,,-99.99,,2013-02-04 09:21:00,
2013-02-04 02:31:00,36.0,25.0,29.86,North,355,0.0,3.0,63,0.00,,,-99.99,,2013-02-04 09:31:00,
2013-02-04 02:42:00,36.0,25.0,29.86,North,355,0.0,3.0,63,0.00,,,-99.99,,2013-02-04 09:42:00,
2013-02-04 02:52:00,36.0,26.0,29.85,NNW,331,1.0,3.0,66,0.00,,,-99.99,,2013-02-04 09:52:00,
2013-02-04 03:01:00,36.0,26.0,29.85,NNW,331,1.0,3.0,66,0.00,,,-99.99,,2013-02-04 10:01:00,
2013-02-04 03:11:00,36.0,26.0,29.85,NNW,331,1.0,3.0,66,0.00,,,-99.99,,2013-02-04 10:11:00,
2013-02-04 03:21:00,36.0,25.0,29.86,ENE,65,0.0,2.0,64,0.00,,,-99.99,,2013-02-04 10:21:00,
2013-02-04 03:32:00,36.0,25.0,29.86,ENE,65,0.0,2.0,64,0.00,,,-99.99,,2013-02-04 10:32:00,
2013-02-04 03:42:00,36.0,25.0,29.86,ENE,65,0.0,2.0,64,0.00,,,-99.99,,2013-02-04 10:42:00,
2013-02-04 03:52:00,36.0,25.0,29.85,North,9,0.0,4.0,64,0.00,,,-99.99,,2013-02-04 10:52:00,
2013-02-04 04:01:00,36.0,25.0,29.85,North,9,0.0,4.0,64,0.00,,,-99.99,,2013-02-04 11:01:00,
2013-02-04 04:11:00,36.0,25.0,29.85,North,9,0.0,4.0,64,0.00,,,-99.99,,2013-02-04 11:11:00,
2013-02-04 04:22:00,36.0,25.0,29.85,NE,56,2.0,4.0,65,0.00,,,-99.99,,2013-02-04 11:22:00,
2013-02-04 04:32:00,36.0,25.0,29.85,NE,56,2.0,4.0,65,0.00,,,-99.99,,2013-02-04 11:32:00,
2013-02-04 04:42:00,36.0,25.0,29.85,NE,56,2.0,4.0,65,0.00,,,-99.99,,2013-02-04 11:42:00,
2013-02-04 04:52:00,36.0,26.0,29.86,North,350,1.0,13.0,66,0.00,,,-99.99,,2013-02-04 11:52:00,
2013-02-04 05:02:00,36.0,26.0,29.86,North,350,1.0,13.0,66,0.00,,,-99.99,,2013-02-04 12:02:00,
2013-02-04 05:12:00,36.0,26.0,29.86,North,350,1.0,13.0,66,0.00,,,-99.99,,2013-02-04 12:12:00,
2013-02-04 05:21:00,36.0,26.0,29.87,NE,36,0.0,3.0,67,0.00,,,-99.99,,2013-02-04 12:21:00,
2013-02-04 05:32:00,36.0,26.0,29.87,NE,36,0.0,3.0,67,0.00,,,-99.99,,2013-02-04 12:32:00,
2013-02-04 05:42:00,36.0,26.0,29.87,NE,36,0.0,3.0,67,0.00,,,-99.99,,2013-02-04 12:42:00,
2013-02-04 05:52:00,36.0,26.0,29.85,NE,49,0.0,3.0,67,0.00,,,-99.99,,2013-02-04 12:52:00,
2013-02-04 06:01:00,36.0,26.0,29.85,NE,49,0.0,3.0,67,0.00,,,-99.99,,2013-02-04 13:01:00,
2013-02-04 06:11:00,36.0,27.0,29.85,NNW,344,1.0,6.0,69,0.00,,,-99.99,,2013-02-04 13:11:00,
2013-02-04 06:21:00,36.0,27.0,29.85,NNW,344,1.0,6.0,69,0.00,,,-99.99,,2013-02-04 13:21:00,
2013-02-04 06:32:00,36.0,27.0,29.85,NNW,344,1.0,6.0,69,0.00,,,-99.99,,2013-02-04 13:32:00,
2013-02-04 06:42:00,36.0,27.0,29.85,NNW,344,1.0,6.0,69,0.00,,,-99.99,,2013-02-04 13:42:00,
2013-02-04 06:52:00,36.0,27.0,29.85,NNE,22,1.0,5.0,70,0.00,,,-99.99,,2013-02-04 13:52:00,
2013-02-04 07:02:00,36.0,27.0,29.85,NNE,22,1.0,5.0,70,0.00,,,-99.99,,2013-02-04 14:02:00,
2013-02-04 07:11:00,36.0,27.0,29.85,NNE,22,1.0,5.0,70,0.00,,,-99.99,,2013-02-04 14:11:00,
2013-02-04 07:21:00,36.0,27.0,29.84,NE,56,1.0,7.0,69,0.00,,,-99.99,,2013-02-04 14:21:00,
2013-02-04 07:32:00,36.0,27.0,29.84,NE,56,1.0,7.0,69,0.00,,,-99.99,,2013-02-04 14:32:00,
2013-02-04 07:42:00,36.0,27.0,29.84,NE,56,1.0,7.0,69,0.00,,,-99.99,,2013-02-04 14:42:00,
2013-02-04 07:52:00,36.0,27.0,29.86,ENE,60,1.0,5.0,70,0.00,,,-99.99,,2013-02-04 14:52:00,
2013-02-04 08:02:00,36.0,27.0,29.86,ENE,60,1.0,5.0,70,0.00,,,-99.99,,2013-02-04 15:02:00,
2013-02-04 08:12:00,36.0,27.0,29.86,ENE,60,1.0,5.0,70,0.00,,,-99.99,,2013-02-04 15:12:00,
2013-02-04 08:22:00,36.0,26.0,29.86,NNE,13,0.0,3.0,68,0.00,,,-99.99,,2013-02-04 15:22:00,
2013-02-04 08:33:00,36.0,26.0,29.86,NNE,13,0.0,3.0,68,0.00,,,-99.99,,2013-02-04 15:33:00,
2013-02-04 08:43:00,36.0,26.0,29.86,NNE,13,0.0,3.0,68,0.00,,,-99.99,,2013-02-04 15:43:00,
2013-02-04 08:52:00,36.0,26.0,29.85,East,82,0.0,9.0,68,0.00,,,-99.99,,2013-02-04 15:52:00,
2013-02-04 09:01:00,36.0,26.0,29.85,East,82,0.0,9.0,68,0.00,,,-99.99,,2013-02-04 16:01:00,
2013-02-04 09:11:00,36.0,26.0,29.85,East,82,0.0,9.0,68,0.00,,,-99.99,,2013-02-04 16:11:00,
2013-02-04 09:21:00,36.0,26.0,29.85,ENE,77,0.0,10.0,68,0.00,,,0.00,,2013-02-04 16:21:00,
2013-02-04 09:32:00,36.0,26.0,29.85,ENE,77,0.0,10.0,68,0.00,,,0.00,,2013-02-04 16:32:00,
2013-02-04 09:43:00,36.0,26.0,29.85,ENE,77,0.0,10.0,68,0.00,,,0.00,,2013-02-04 16:43:00,
2013-02-04 09:51:00,36.0,26.0,29.84,NNW,346,2.0,7.0,67,0.00,,,0.00,,2013-02-04 16:51:00,
2013-02-04 10:01:00,36.0,26.0,29.84,NNW,346,2.0,7.0,67,0.00,,,0.00,,2013-02-04 17:01:00,
2013-02-04 10:11:00,36.0,26.0,29.84,NNW,346,2.0,7.0,67,0.00,,,0.00,,2013-02-04 17:11:00,
2013-02-04 10:21:00,37.0,28.0,29.84,ENE,68,0.0,2.0,69,0.00,,,0.00,,2013-02-04 17:21:00,
2013-02-04 10:31:00,37.0,28.0,29.84,ENE,68,0.0,2.0,69,0.00,,,0.00,,2013-02-04 17:31:00,
2013-02-04 10:42:00,37.0,28.0,29.84,ENE,68,0.0,2.0,69,0.00,,,0.00,,2013-02-04 17:42:00,
2013-02-04 10:51:00,37.0,27.0,29.84,ESE,116,1.0,4.0,66,0.00,,,0.00,,2013-02-04 17:51:00,
2013-02-04 11:02:00,37.0,27.0,29.84,ESE,116,1.0,4.0,66,0.00,,,0.00,,2013-02-04 18:02:00,
2013-02-04 11:11:00,37.0,27.0,29.84,ESE,116,1.0,4.0,66,0.00,,,0.00,,2013-02-04 18:11:00,
2013-02-04 11:21:00,37.0,27.0,29.84,ESE,116,1.0,4.0,66,0.00,,,0.00,,2013-02-04 18:21:00,
2013-02-04 11:31:00,37.0,27.0,29.84,ESE,116,1.0,4.0,66,0.00,,,0.00,,2013-02-04 18:31:00,
2013-02-04 11:52:00,38.0,27.0,29.86,NNE,20,0.0,3.0,65,0.00,,,0.00,,2013-02-04 18:52:00,
2013-02-04 12:02:00,38.0,27.0,29.86,NNE,20,0.0,3.0,65,0.00,,,0.00,,2013-02-04 19:02:00,
2013-02-04 12:11:00,38.0,27.0,29.86,NNE,20,0.0,3.0,65,0.00,,,0.00,,2013-02-04 19:11:00,
2013-02-04 12:21:00,38.0,27.0,29.86,East,88,1.0,5.0,63,0.00,,,0.00,,2013-02-04 19:21:00,
2013-02-04 12:31:00,38.0,27.0,29.86,East,88,1.0,5.0,63,0.00,,,0.00,,2013-02-04 19:31:00,
2013-02-04 12:42:00,38.0,27.0,29.86,East,88,1.0,5.0,63,0.00,,,0.00,,2013-02-04 19:42:00,
2013-02-04 12:52:00,38.0,25.0,29.86,ENE,72,2.0,5.0,60,0.00,,,0.00,,2013-02-04 19:52:00,
2013-02-04 13:01:00,38.0,25.0,29.86,ENE,72,2.0,5.0,60,0.00,,,0.00,,2013-02-04 20:01:00,
2013-02-04 13:11:00,38.0,25.0,29.86,ENE,72,2.0,5.0,60,0.00,,,0.00,,2013-02-04 20:11:00,
2013-02-04 13:21:00,38.0,25.0,29.86,ESE,110,3.0,7.0,58,0.00,,,0.00,,2013-02-04 20:21:00,
2013-02-04 13:31:00,38.0,25.0,29.86,ESE,110,3.0,7.0,58,0.00,,,0.00,,2013-02-04 20:31:00,
2013-02-04 13:42:00,38.0,25.0,29.86,ESE,110,3.0,7.0,58,0.00,,,0.00,,2013-02-04 20:42:00,
2013-02-04 13:52:00,38.0,25.0,29.86,NE,56,1.0,6.0,60,0.00,,,0.00,,2013-02-04 20:52:00,
2013-02-04 14:01:00,38.0,25.0,29.86,NE,56,1.0,6.0,60,0.00,,,0.00,,2013-02-04 21:01:00,
2013-02-04 14:11:00,38.0,25.0,29.86,NE,56,1.0,6.0,60,0.00,,,0.00,,2013-02-04 21:11:00,
2013-02-04 14:22:00,38.0,25.0,29.85,NE,38,0.0,2.0,60,0.00,,,0.00,,2013-02-04 21:22:00,
2013-02-04 14:31:00,38.0,25.0,29.85,NE,38,0.0,2.0,60,0.00,,,0.00,,2013-02-04 21:31:00,
2013-02-04 14:43:00,38.0,25.0,29.85,NE,38,0.0,2.0,60,0.00,,,0.00,,2013-02-04 21:43:00,
2013-02-04 14:52:00,38.0,26.0,29.85,ENE,75,1.0,3.0,61,0.00,,,0.00,,2013-02-04 21:52:00,
2013-02-04 15:01:00,38.0,26.0,29.85,ENE,75,1.0,3.0,61,0.00,,,0.00,,2013-02-04 22:01:00,
2013-02-04 15:12:00,38.0,26.0,29.85,ENE,75,1.0,3.0,61,0.00,,,0.00,,2013-02-04 22:12:00,
2013-02-04 15:21:00,38.0,25.0,29.85,NNW,334,1.0,6.0,60,0.00,,,0.00,,2013-02-04 22:21:00,
2013-02-04 15:32:00,38.0,25.0,29.85,NNW,334,1.0,6.0,60,0.00,,,0.00,,2013-02-04 22:32:00,
2013-02-04 15:42:00,38.0,25.0,29.85,NNW,334,1.0,6.0,60,0.00,,,0.00,,2013-02-04 22:42:00,
2013-02-04 15:52:00,38.0,25.0,29.86,NNE,22,2.0,7.0,58,0.00,,,0.00,,2013-02-04 22:52:00,
2013-02-04 16:01:00,38.0,25.0,29.86,NNE,22,2.0,7.0,58,0.00,,,0.00,,2013-02-04 23:01:00,
2013-02-04 16:11:00,38.0,25.0,29.86,NNE,22,2.0,7.0,58,0.00,,,0.00,,2013-02-04 23:11:00,
2013-02-04 16:21:00,39.0,25.0,29.86,ENE,61,3.0,9.0,58,0.00,,,0.00,,2013-02-04 23:21:00,
2013-02-04 16:31:00,39.0,25.0,29.86,ENE,61,3.0,9.0,58,0.00,,,0.00,,2013-02-04 23:31:00,
2013-02-04 16:42:00,39.0,25.0,29.86,ENE,61,3.0,9.0,58,0.00,,,0.00,,2013-02-04 23:42:00,
2013-02-04 16:52:00,39.0,25.0,29.86,North,5,2.0,10.0,57,0.00,,,0.00,,2013-02-04 23:52:00,
2013-02-04 17:01:00,39.0,25.0,29.86,North,5,2.0,10.0,57,0.00,,,0.00,,2013-02-05 00:01:00,
2013-02-04 17:11:00,39.0,25.0,29.86,North,5,2.0,10.0,57,0.00,,,0.00,,2013-02-05 00:11:00,
2013-02-04 17:21:00,38.0,24.0,29.86,North,5,1.0,7.0,57,0.00,,,0.00,,2013-02-05 00:21:00,
2013-02-04 17:31:00,38.0,24.0,29.86,North,5,1.0,7.0,57,0.00,,,0.00,,2013-02-05 00:31:00,
2013-02-04 17:42:00,38.0,24.0,29.86,North,5,1.0,7.0,57,0.00,,,0.00,,2013-02-05 00:42:00,
2013-02-04 17:52:00,38.0,25.0,29.87,ESE,117,2.0,16.0,58,0.00,,,0.00,,2013-02-05 00:52:00,
2013-02-04 18:01:00,38.0,25.0,29.87,ESE,117,2.0,16.0,58,0.00,,,0.00,,2013-02-05 01:01:00,
2013-02-04 18:11:00,38.0,25.0,29.87,ESE,117,2.0,16.0,58,0.00,,,0.00,,2013-02-05 01:11:00,
2013-02-04 18:21:00,38.0,26.0,29.88,NE,42,0.0,15.0,61,0.00,,,0.00,,2013-02-05 01:21:00,
2013-02-04 18:32:00,38.0,26.0,29.88,NE,42,0.0,15.0,61,0.00,,,0.00,,2013-02-05 01:32:00,
2013-02-04 18:42:00,38.0,26.0,29.88,NE,42,0.0,15.0,61,0.00,,,0.00,,2013-02-05 01:42:00,
2013-02-04 18:52:00,37.0,25.0,29.86,NNE,30,0.0,2.0,62,0.00,,,0.00,,2013-02-05 01:52:00,
2013-02-04 19:01:00,37.0,25.0,29.86,NNE,30,0.0,2.0,62,0.00,,,0.00,,2013-02-05 02:01:00,
2013-02-04 19:11:00,37.0,25.0,29.86,NNE,30,0.0,2.0,62,0.00,,,0.00,,2013-02-05 02:11:00,
2013-02-04 19:21:00,37.0,26.0,29.85,NNW,343,0.0,3.0,65,0.00,,,0.00,,2013-02-05 02:21:00,
2013-02-04 19:31:00,37.0,26.0,29.85,NNW,343,0.0,3.0,65,0.00,,,0.00,,2013-02-05 02:31:00,
2013-02-04 19:42:00,37.0,26.0,29.85,NNW,343,0.0,3.0,65,0.00,,,0.00,,2013-02-05 02:42:00,
2013-02-04 19:52:00,36.0,26.0,29.86,NW,319,0.0,2.0,66,0.00,,,0.00,,2013-02-05 02:52:00,
2013-02-04 20:01:00,36.0,26.0,29.86,NW,319,0.0,2.0,66,0.00,,,0.00,,2013-02-05 03:01:00,
2013-02-04 20:11:00,36.0,26.0,29.86,NW,319,0.0,2.0,66,0.00,,,0.00,,2013-02-05 03:11:00,
2013-02-04 20:21:00,37.0,26.0,29.85,NNE,28,0.0,3.0,63,0.00,,,0.00,,2013-02-05 03:21:00,
2013-02-04 20:31:00,37.0,26.0,29.85,NNE,28,0.0,3.0,63,0.00,,,0.00,,2013-02-05 03:31:00,
2013-02-04 20:42:00,37.0,26.0,29.85,NNE,28,0.0,3.0,63,0.00,,,0.00,,2013-02-05 03:42:00,
2013-02-04 20:52:00,37.0,25.0,29.84,NNW,327,1.0,6.0,62,0.00,,,0.00,,2013-02-05 03:52:00,
2013-02-04 21:01:00,37.0,25.0,29.84,NNW,327,1.0,6.0,62,0.00,,,0.00,,2013-02-05 04:01:00,
2013-02-04 21:11:00,37.0,25.0,29.84,NNW,327,1.0,6.0,62,0.00,,,0.00,,2013-02-05 04:11:00,
2013-02-04 21:21:00,36.0,25.0,29.84,NNW,339,0.0,3.0,64,0.00,,,0.00,,2013-02-05 04:21:00,
2013-02-04 21:31:00,36.0,25.0,29.84,NNW,339,0.0,3.0,64,0.00,,,0.00,,2013-02-05 04:31:00,
2013-02-04 21:42:00,36.0,25.0,29.84,NNW,339,0.0,3.0,64,0.00,,,0.00,,2013-02-05 04:42:00,
2013-02-04 21:52:00,35.0,25.0,29.85,North,10,1.0,4.0,66,0.00,,,0.00,,2013-02-05 04:52:00,
2013-02-04 22:01:00,35.0,25.0,29.85,North,10,1.0,4.0,66,0.00,,,0.00,,2013-02-05 05:01:00,
2013-02-04 22:11:00,35.0,25.0,29.85,North,10,1.0,4.0,66,0.00,,,0.00,,2013-02-05 05:11:00,
2013-02-04 22:21:00,35.0,26.0,29.85,WSW,250,0.0,1.0,69,0.00,,,0.00,,2013-02-05 05:21:00,
2013-02-04 22:31:00,35.0,26.0,29.85,WSW,250,0.0,1.0,69,0.00,,,0.00,,2013-02-05 05:31:00,
2013-02-04 22:42:00,35.0,26.0,29.85,WSW,250,0.0,1.0,69,0.00,,,0.00,,2013-02-05 05:42:00,
2013-02-04 22:52:00,35.0,25.0,29.84,East,82,1.0,2.0,67,0.00,,,0.00,,2013-02-05 05:52:00,
2013-02-04 23:01:00,35.0,25.0,29.84,East,82,1.0,2.0,67,0.00,,,0.00,,2013-02-05 06:01:00,
2013-02-04 23:11:00,35.0,25.0,29.84,East,82,1.0,2.0,67,0.00,,,0.00,,2013-02-05 06:11:00,
2013-02-04 23:21:00,35.0,25.0,29.85,NNW,347,0.0,2.0,66,0.00,,,0.00,,2013-02-05 06:21:00,
2013-02-04 23:31:00,35.0,25.0,29.85,NNW,347,0.0,2.0,66,0.00,,,0.00,,2013-02-05 06:31:00,
2013-02-04 23:42:00,35.0,25.0,29.85,NNW,347,0.0,2.0,66,0.00,,,0.00,,2013-02-05 06:42:00,
2013-02-04 23:52:00,34.0,25.0,29.85,NE,51,1.0,3.0,69,0.00,,,0.00,,2013-02-05 06:52:00,